createdAt,value
2023-03-20T06:20:25.770Z,33.97
2023-03-20T06:23:03.358Z,33.13
2023-03-20T06:25:30.498Z,33.37
2023-03-20T06:27:57.959Z,35.40
2023-03-20T06:30:24.866Z,36.70
2023-03-20T06:32:51.906Z,35.43
2023-03-20T06:35:20.569Z,34.97
2023-03-20T06:37:49.688Z,34.23
2023-03-20T06:40:25.357Z,36.13
2023-03-20T06:42:53.272Z,35.40
2023-03-20T06:45:22.714Z,35.17
2023-03-20T06:47:56.116Z,35.90
2023-03-20T06:50:23.244Z,37.27
2023-03-20T06:52:51.242Z,36.87
2023-03-20T06:55:37.162Z,36.30
2023-03-20T06:58:05.439Z,36.30
2023-03-20T07:00:34.472Z,37.87
2023-03-20T07:03:05.581Z,38.10
2023-03-20T07:05:32.812Z,37.63
2023-03-20T07:08:01.806Z,40.70
2023-03-20T07:10:28.943Z,39.37
2023-03-20T07:12:56.797Z,40.23
2023-03-20T07:15:24.819Z,41.27
2023-03-20T07:17:51.860Z,41.00
2023-03-20T07:20:19.211Z,40.07
2023-03-20T07:22:48.202Z,40.77
2023-03-20T07:25:35.699Z,40.47
2023-03-20T07:28:09.321Z,40.17
2023-03-20T07:30:39.269Z,39.40
2023-03-20T07:33:06.505Z,43.00
2023-03-20T07:35:35.019Z,41.10
2023-03-20T07:38:02.558Z,40.53
2023-03-20T07:40:29.786Z,41.13
2023-03-20T07:43:01.355Z,40.50
2023-03-20T07:45:46.761Z,39.27
2023-03-20T07:48:13.847Z,39.43
2023-03-20T07:50:40.881Z,39.80
2023-03-20T07:53:07.996Z,41.77
2023-03-20T07:55:35.085Z,41.17
2023-03-20T07:58:02.718Z,41.23
2023-03-20T08:00:30.063Z,41.33
2023-03-20T08:02:57.270Z,40.53
2023-03-20T08:05:24.884Z,43.37
2023-03-20T08:07:52.257Z,42.53
2023-03-20T08:10:19.277Z,43.17
2023-03-20T08:12:46.334Z,38.72
2023-03-20T08:15:13.688Z,37.00
2023-03-20T08:17:44.760Z,34.83
2023-03-20T08:20:13.614Z,34.80
2023-03-20T08:22:41.407Z,33.40
2023-03-20T08:25:09.430Z,33.05
2023-03-20T08:27:38.553Z,31.80
2023-03-20T08:30:05.876Z,31.88
2023-03-20T08:32:33.402Z,31.65
2023-03-20T08:35:00.299Z,30.75
2023-03-20T08:37:28.113Z,31.75
2023-03-20T08:39:54.986Z,32.97
2023-03-20T08:42:22.058Z,31.50
2023-03-20T08:44:49.214Z,30.73
2023-03-20T08:47:16.256Z,30.25
2023-03-20T08:49:43.760Z,30.55
2023-03-20T08:52:10.929Z,32.05
2023-03-20T08:54:37.806Z,29.08
2023-03-20T08:57:04.824Z,31.27
2023-03-20T08:59:31.751Z,27.60
2023-03-20T09:01:58.778Z,25.23
2023-03-20T09:04:25.906Z,23.67
2023-03-20T09:06:52.849Z,26.15
2023-03-20T09:09:21.623Z,24.30
2023-03-20T09:11:48.828Z,26.98
2023-03-20T09:14:16.148Z,26.23
2023-03-20T09:16:43.323Z,24.85
2023-03-20T09:19:10.344Z,24.45
2023-03-20T09:21:37.283Z,25.05
2023-03-20T09:24:04.571Z,23.50
2023-03-20T09:26:31.512Z,22.55
2023-03-20T09:28:58.540Z,22.83
2023-03-20T09:31:25.614Z,21.70
2023-03-20T09:33:53.614Z,23.27
2023-03-20T09:36:20.904Z,23.40
2023-03-20T09:38:47.869Z,23.42
2023-03-20T09:41:21.957Z,23.42
2023-03-20T09:44:00.923Z,23.88
2023-03-20T09:46:36.734Z,22.30
2023-03-20T09:49:30.679Z,22.13
2023-03-20T09:52:00.536Z,22.55
2023-03-20T09:54:43.542Z,20.80
2023-03-20T09:57:25.651Z,21.70
2023-03-20T09:59:57.569Z,21.40
2023-03-20T10:02:52.820Z,20.67
2023-03-20T10:05:35.250Z,20.42
2023-03-20T10:08:04.930Z,21.10
2023-03-20T10:10:59.905Z,20.90
2023-03-20T10:13:52.613Z,21.00
2023-03-20T10:16:45.218Z,20.42
2023-03-20T10:19:30.182Z,20.48
2023-03-20T10:22:07.929Z,20.42
2023-03-20T10:24:43.946Z,20.45
2023-03-20T10:27:34.134Z,20.23
2023-03-20T10:30:22.988Z,19.48
2023-03-20T10:33:15.959Z,21.58
2023-03-20T10:35:57.615Z,21.83
2023-03-20T10:38:36.611Z,24.17
2023-03-20T10:41:09.693Z,25.25
2023-03-20T10:43:41.628Z,25.30
2023-03-20T10:46:16.276Z,24.88
2023-03-20T10:48:50.968Z,27.05
2023-03-20T10:51:24.795Z,28.02
2023-03-20T10:53:59.686Z,27.38
2023-03-20T10:56:37.877Z,29.73
2023-03-20T10:59:11.093Z,31.02
2023-03-20T11:01:37.975Z,32.88
2023-03-20T11:04:05.169Z,35.55
2023-03-20T11:06:37.679Z,37.65
2023-03-20T11:09:18.789Z,37.00
2023-03-20T11:11:52.293Z,40.17
2023-03-20T11:14:22.871Z,35.88
2023-03-20T11:16:52.683Z,32.80
2023-03-20T11:19:22.111Z,29.58
2023-03-20T11:21:57.875Z,30.33
2023-03-20T11:24:44.637Z,31.48
2023-03-20T11:27:19.273Z,33.05
2023-03-20T11:29:49.829Z,33.13
2023-03-20T11:32:22.918Z,30.23
2023-03-20T11:34:49.911Z,33.05
2023-03-20T11:37:29.492Z,34.45
2023-03-20T11:40:00.447Z,33.08
2023-03-20T11:42:30.636Z,36.70
2023-03-20T11:44:59.933Z,34.40
2023-03-20T11:47:28.834Z,33.67
2023-03-20T11:50:01.031Z,32.00
2023-03-20T11:52:37.126Z,37.70
2023-03-20T11:55:08.178Z,31.38
2023-03-20T11:57:39.647Z,29.50
2023-03-20T12:00:23.134Z,26.15
2023-03-20T12:02:53.108Z,27.42
2023-03-20T12:05:36.735Z,31.90
2023-03-20T12:08:25.197Z,30.27
2023-03-20T12:10:59.092Z,31.17
2023-03-20T12:13:35.827Z,32.10
2023-03-20T12:16:15.839Z,31.17
2023-03-20T12:18:49.027Z,30.08
2023-03-20T12:21:27.201Z,29.30
2023-03-20T12:24:02.926Z,28.55
2023-03-20T12:26:56.229Z,29.38
2023-03-20T12:29:46.509Z,30.42
2023-03-20T12:32:21.809Z,33.22
2023-03-20T12:35:17.452Z,29.35
2023-03-20T12:37:44.417Z,29.17
2023-03-20T12:40:20.567Z,31.50
2023-03-20T12:43:01.966Z,32.45
2023-03-20T12:46:04.139Z,31.80
2023-03-20T12:48:31.308Z,31.88
2023-03-20T12:51:06.774Z,32.13
2023-03-20T12:53:57.995Z,31.52
2023-03-20T12:56:46.684Z,30.65
2023-03-20T12:59:41.072Z,31.95
2023-03-20T13:02:33.730Z,32.67
2023-03-20T13:05:12.447Z,33.65
2023-03-20T13:08:12.280Z,32.80
2023-03-20T13:11:10.240Z,32.85
2023-03-20T13:13:51.045Z,32.28
2023-03-20T13:16:37.198Z,31.70
2023-03-20T13:19:32.659Z,31.88
2023-03-20T13:22:26.869Z,31.02
2023-03-20T13:25:18.422Z,30.77
2023-03-20T13:27:59.358Z,29.33
2023-03-20T13:30:44.899Z,27.60
2023-03-20T13:33:26.855Z,27.63
2023-03-20T13:36:23.091Z,28.45
2023-03-20T13:38:55.979Z,29.15
2023-03-20T13:41:24.741Z,29.02
2023-03-20T13:44:01.180Z,29.35
2023-03-20T13:46:46.114Z,34.13
2023-03-20T13:49:38.594Z,34.22
2023-03-20T13:52:17.570Z,35.72
2023-03-20T13:54:59.001Z,34.72
2023-03-20T13:57:29.016Z,34.58
2023-03-20T14:00:29.211Z,38.40
2023-03-20T14:02:57.478Z,38.92
2023-03-20T14:05:26.582Z,41.25
2023-03-20T14:07:58.186Z,40.17
2023-03-20T14:10:24.995Z,39.22
2023-03-20T14:13:01.267Z,39.25
2023-03-20T14:15:33.204Z,37.17
2023-03-20T14:18:05.559Z,37.08
2023-03-20T14:20:38.427Z,34.80
2023-03-20T14:23:07.365Z,35.03
2023-03-20T14:25:40.600Z,33.55
2023-03-20T14:28:13.743Z,33.15
2023-03-20T14:30:43.744Z,33.65
2023-03-20T14:33:13.514Z,31.67
2023-03-20T14:35:52.470Z,32.40
2023-03-20T14:38:53.677Z,30.23
2023-03-20T14:41:31.504Z,31.10
2023-03-20T14:44:58.692Z,31.23
2023-03-20T14:47:39.109Z,29.60
2023-03-20T14:50:32.180Z,29.70
2023-03-20T14:52:59.241Z,30.02
2023-03-20T14:55:28.115Z,32.70
2023-03-20T14:57:57.189Z,31.33
2023-03-20T15:00:30.893Z,31.77
2023-03-20T15:03:14.082Z,32.72
2023-03-20T15:05:42.280Z,31.25
2023-03-20T15:08:25.782Z,29.73
2023-03-20T15:10:58.418Z,30.48
2023-03-20T15:13:27.142Z,30.05
2023-03-20T15:16:08.916Z,30.63
2023-03-20T15:18:41.046Z,29.45
2023-03-20T15:21:19.591Z,29.13
2023-03-20T15:23:48.055Z,26.17
2023-03-20T15:26:17.065Z,19.25
2023-03-20T15:28:46.385Z,17.92
2023-03-20T15:31:26.337Z,14.98
2023-03-20T15:33:54.786Z,10.85
2023-03-20T15:36:26.161Z,8.83
2023-03-20T15:38:53.409Z,10.07
2023-03-20T15:41:36.314Z,9.83
2023-03-20T15:44:15.760Z,9.37
2023-03-20T15:47:00.121Z,11.67
2023-03-20T15:49:28.854Z,17.40
2023-03-20T15:51:59.341Z,17.55
2023-03-20T15:54:26.615Z,17.35
2023-03-20T15:56:56.221Z,17.40
2023-03-20T15:59:27.849Z,18.00
2023-03-20T16:01:58.072Z,18.53
2023-03-20T16:04:27.096Z,18.20
2023-03-20T16:07:00.843Z,18.13
2023-03-20T16:09:28.420Z,17.77
2023-03-20T16:12:03.431Z,16.50
2023-03-20T16:14:32.542Z,15.40
2023-03-20T16:17:02.241Z,15.57
2023-03-20T16:19:29.826Z,14.03
2023-03-20T16:22:00.349Z,12.43
2023-03-20T16:24:31.296Z,12.33
2023-03-20T16:26:58.645Z,12.30
2023-03-20T16:29:28.391Z,12.50
2023-03-20T16:32:04.257Z,10.67
2023-03-20T16:34:35.792Z,8.83
2023-03-20T16:37:27.408Z,7.90
2023-03-20T16:40:15.028Z,7.83
2023-03-20T16:42:42.916Z,8.40
2023-03-20T16:45:29.253Z,7.00
2023-03-20T16:48:13.685Z,6.50
2023-03-20T16:50:43.287Z,6.50
2023-03-20T16:53:14.160Z,7.40
2023-03-20T16:55:50.534Z,7.23
2023-03-20T16:58:22.083Z,7.97
2023-03-20T17:00:51.865Z,7.80
2023-03-20T17:03:25.558Z,7.57
2023-03-20T17:05:59.053Z,8.13
2023-03-20T17:08:31.140Z,8.23
2023-03-20T17:11:04.635Z,8.27
2023-03-20T17:13:31.767Z,9.00
2023-03-20T17:15:59.634Z,9.77
2023-03-20T17:18:27.991Z,9.83
2023-03-20T17:20:54.866Z,10.13
2023-03-20T17:23:22.971Z,9.90
2023-03-20T17:25:51.013Z,9.73
2023-03-20T17:28:21.280Z,10.40
2023-03-20T17:30:50.093Z,10.77
2023-03-20T17:33:19.074Z,11.90
2023-03-20T17:35:47.921Z,13.67
2023-03-20T17:38:22.522Z,14.90
2023-03-20T17:40:50.650Z,15.90
2023-03-20T17:43:20.720Z,18.30
2023-03-20T17:45:48.394Z,19.63
2023-03-20T17:48:21.041Z,20.27
2023-03-20T17:50:51.128Z,21.77
2023-03-20T17:53:21.294Z,23.57
2023-03-20T17:55:48.253Z,23.23
2023-03-20T17:58:17.190Z,26.40
2023-03-20T18:00:44.299Z,26.60
2023-03-20T18:03:11.766Z,27.20
2023-03-20T18:05:39.670Z,27.93
2023-03-20T18:08:13.571Z,28.33
2023-03-20T18:10:40.860Z,30.10
2023-03-20T18:13:08.077Z,29.73
2023-03-20T18:15:35.142Z,29.63
2023-03-20T18:18:02.138Z,30.57
2023-03-20T18:20:32.536Z,31.13
2023-03-20T18:22:59.757Z,31.60
2023-03-20T18:25:27.514Z,31.07
2023-03-20T18:27:55.956Z,33.87
2023-03-20T18:30:27.710Z,35.73
2023-03-20T18:32:54.646Z,38.17
2023-03-20T18:35:21.601Z,37.50
2023-03-20T18:37:48.592Z,37.57
2023-03-20T18:40:19.818Z,37.07
2023-03-20T18:42:46.992Z,38.00
2023-03-20T18:45:14.475Z,38.47
2023-03-20T18:47:41.569Z,40.23
2023-03-20T18:50:36.527Z,39.77
2023-03-20T18:53:05.546Z,39.67
2023-03-20T18:55:33.717Z,39.43
2023-03-20T18:58:03.835Z,40.10
2023-03-20T19:00:38.170Z,39.70
2023-03-20T19:03:06.280Z,39.90
2023-03-20T19:05:33.709Z,40.87
2023-03-20T19:08:01.191Z,42.33
2023-03-20T19:10:37.858Z,42.10
2023-03-20T19:13:07.536Z,42.37
2023-03-20T19:15:36.923Z,43.23
2023-03-20T19:18:05.625Z,42.30
2023-03-20T19:20:58.624Z,43.33
2023-03-20T19:23:28.615Z,44.10
2023-03-20T19:25:56.022Z,45.60
2023-03-20T19:28:39.057Z,44.93
2023-03-20T19:31:07.960Z,46.27
2023-03-20T19:33:35.113Z,45.13
2023-03-20T19:36:04.349Z,44.23
2023-03-20T19:38:32.514Z,44.53
2023-03-20T19:41:00.287Z,43.90
2023-03-20T19:43:28.951Z,43.53
2023-03-20T19:45:58.737Z,42.97
2023-03-20T19:48:46.505Z,43.77
2023-03-20T19:51:26.619Z,42.63
2023-03-20T19:53:54.307Z,43.77
2023-03-20T19:56:23.322Z,42.63
2023-03-20T19:58:50.787Z,45.03
2023-03-20T20:01:21.449Z,44.83
2023-03-20T20:03:53.685Z,45.17
2023-03-20T20:06:22.526Z,45.90
2023-03-20T20:08:52.675Z,46.57
2023-03-20T20:11:20.865Z,45.37
2023-03-20T20:14:07.496Z,46.47
2023-03-20T20:16:36.699Z,47.20
2023-03-20T20:19:03.974Z,46.97
2023-03-20T20:24:18.145Z,48.87
2023-03-20T20:27:11.519Z,48.53
2023-03-20T20:29:38.942Z,50.07
2023-03-20T20:32:06.052Z,49.17
2023-03-20T20:35:30.798Z,48.80
2023-03-20T20:40:12.663Z,46.60
2023-03-20T20:42:40.556Z,46.20
2023-03-20T20:45:09.463Z,42.53
2023-03-20T20:47:36.737Z,42.57
2023-03-20T20:50:04.194Z,41.70
2023-03-20T20:52:34.447Z,39.13
2023-03-20T20:55:19.346Z,40.70
2023-03-20T20:57:48.792Z,39.53
2023-03-20T21:00:16.654Z,39.47
2023-03-20T21:02:43.825Z,38.70
2023-03-20T21:05:13.890Z,37.20
2023-03-20T21:07:46.311Z,35.17
2023-03-20T21:10:16.758Z,33.80
2023-03-20T21:12:58.075Z,34.77
2023-03-20T21:15:26.811Z,35.73
2023-03-20T21:18:01.010Z,30.40
2023-03-20T21:20:29.951Z,27.07
2023-03-20T21:22:56.927Z,27.10
2023-03-20T21:25:38.698Z,22.50
2023-03-20T21:28:07.513Z,23.87
2023-03-20T21:30:34.602Z,22.30
2023-03-20T21:33:01.840Z,21.70
2023-03-20T21:35:28.835Z,21.20
2023-03-20T21:40:43.676Z,20.97
2023-03-20T21:43:11.305Z,19.77
2023-03-20T21:49:04.132Z,21.23
2023-03-20T21:57:35.054Z,23.67
2023-03-20T22:02:30.949Z,24.60
2023-03-20T22:08:26.968Z,25.80
2023-03-20T22:11:34.972Z,25.47
2023-03-20T22:22:37.406Z,25.30
2023-03-20T22:25:19.787Z,25.33
2023-03-20T22:28:00.877Z,26.43
2023-03-20T22:31:08.999Z,24.63
2023-03-20T22:36:36.048Z,26.67
